createdAt,value
2019-03-28T00:01:44.526Z,13.58
2019-03-28T00:04:15.509Z,14.18
2019-03-28T00:06:46.557Z,14.07
2019-03-28T00:09:17.498Z,13.53
2019-03-28T00:11:49.163Z,15.10
2019-03-28T00:14:20.987Z,13.20
2019-03-28T00:16:51.913Z,14.53
2019-03-28T00:19:22.765Z,15.13
2019-03-28T00:21:53.874Z,13.43
2019-03-28T00:24:42.093Z,14.47
2019-03-28T00:27:12.930Z,14.63
2019-03-28T00:29:43.780Z,13.83
2019-03-28T00:32:15.863Z,16.10
2019-03-28T00:34:46.733Z,14.37
2019-03-28T00:37:17.478Z,14.37
2019-03-28T00:39:48.738Z,13.73
2019-03-28T00:42:19.715Z,13.93
2019-03-28T00:44:50.500Z,15.67
2019-03-28T00:47:21.533Z,14.90
2019-03-28T00:49:52.507Z,14.90
2019-03-28T00:52:23.243Z,13.40
2019-03-28T00:54:54.098Z,13.93
2019-03-28T00:57:26.242Z,14.67
2019-03-28T00:59:56.952Z,13.73
2019-03-28T01:02:27.813Z,13.67
2019-03-28T01:04:58.695Z,14.00
2019-03-28T01:07:29.599Z,12.83
2019-03-28T01:10:01.271Z,13.53
2019-03-28T01:12:32.056Z,12.97
2019-03-28T01:15:04.480Z,13.37
2019-03-28T01:17:35.446Z,14.27
2019-03-28T01:20:07.135Z,12.60
2019-03-28T01:22:38.101Z,14.07
2019-03-28T01:25:09.636Z,13.10
2019-03-28T01:27:40.409Z,14.57
2019-03-28T01:30:12.192Z,13.50
2019-03-28T01:32:43.002Z,12.93
2019-03-28T01:35:13.774Z,11.70
2019-03-28T01:37:45.005Z,12.63
2019-03-28T01:40:16.070Z,11.00
2019-03-28T01:42:46.984Z,14.33
2019-03-28T01:45:18.049Z,13.53
2019-03-28T01:47:48.874Z,13.90
2019-03-28T01:50:19.816Z,13.97
2019-03-28T01:52:50.553Z,14.87
2019-03-28T01:55:21.392Z,13.77
2019-03-28T01:57:52.152Z,14.03
2019-03-28T02:00:22.850Z,13.17
2019-03-28T02:02:53.721Z,12.50
2019-03-28T02:05:24.511Z,13.17
2019-03-28T02:07:55.257Z,12.25
2019-03-28T02:10:25.977Z,14.20
2019-03-28T02:12:56.816Z,12.77
2019-03-28T02:15:27.871Z,13.80
2019-03-28T02:17:58.876Z,14.27
2019-03-28T02:20:29.599Z,13.22
2019-03-28T02:23:00.500Z,14.27
2019-03-28T02:25:31.420Z,14.63
2019-03-28T02:28:02.426Z,14.80
2019-03-28T02:30:35.536Z,15.07
2019-03-28T02:33:06.661Z,12.80
2019-03-28T02:35:37.580Z,13.50
2019-03-28T02:38:08.401Z,13.27
2019-03-28T02:40:39.133Z,14.97
2019-03-28T02:43:10.038Z,13.97
2019-03-28T02:45:40.918Z,12.13
2019-03-28T02:48:11.870Z,17.27
2019-03-28T02:50:42.757Z,14.63
2019-03-28T02:53:13.987Z,15.17
2019-03-28T02:55:44.882Z,13.20
2019-03-28T02:58:15.707Z,13.30
2019-03-28T03:00:47.889Z,15.53
2019-03-28T03:03:18.925Z,13.90
2019-03-28T03:05:49.778Z,13.60
2019-03-28T03:08:20.645Z,14.83
2019-03-28T03:10:51.428Z,15.40
2019-03-28T03:13:23.488Z,15.70
2019-03-28T03:15:54.345Z,15.23
2019-03-28T03:18:25.129Z,15.53
2019-03-28T03:20:55.919Z,14.77
2019-03-28T03:23:26.800Z,15.17
2019-03-28T03:25:57.688Z,16.00
2019-03-28T03:28:28.578Z,14.17
2019-03-28T03:31:00.306Z,15.80
2019-03-28T03:33:31.021Z,13.77
2019-03-28T03:36:02.005Z,15.20
2019-03-28T03:38:33.140Z,15.43
2019-03-28T03:41:04.197Z,13.93
2019-03-28T03:43:35.275Z,15.08
2019-03-28T03:46:07.405Z,13.67
2019-03-28T03:48:39.227Z,14.67
2019-03-28T03:51:10.062Z,17.77
2019-03-28T03:53:40.889Z,13.37
2019-03-28T03:56:11.811Z,14.80
2019-03-28T03:58:42.609Z,14.80
2019-03-28T04:01:13.613Z,13.90
2019-03-28T04:03:44.414Z,12.90
2019-03-28T04:06:15.231Z,13.53
2019-03-28T04:08:46.062Z,14.20
2019-03-28T04:11:16.856Z,15.13
2019-03-28T04:13:48.255Z,14.40
2019-03-28T04:16:19.074Z,15.20
2019-03-28T04:18:49.967Z,15.87
2019-03-28T04:21:20.866Z,13.55
2019-03-28T04:23:51.844Z,13.90
2019-03-28T04:26:22.785Z,15.37
2019-03-28T04:28:53.918Z,14.30
2019-03-28T04:31:25.800Z,15.30
2019-03-28T04:33:56.614Z,16.73
2019-03-28T04:36:27.403Z,15.73
2019-03-28T04:38:58.353Z,15.10
2019-03-28T04:41:29.078Z,17.17
2019-03-28T04:44:00.036Z,14.90
2019-03-28T04:46:30.853Z,15.03
2019-03-28T04:49:01.659Z,14.90
2019-03-28T04:51:32.557Z,15.07
2019-03-28T04:54:03.571Z,16.83
2019-03-28T04:56:35.846Z,16.70
2019-03-28T04:59:06.709Z,14.90
2019-03-28T05:01:38.595Z,14.58
2019-03-28T05:04:09.388Z,15.18
2019-03-28T05:06:40.191Z,14.37
2019-03-28T05:09:11.054Z,16.63
2019-03-28T05:11:41.807Z,15.90
2019-03-28T05:14:13.620Z,15.70
2019-03-28T05:16:44.539Z,12.70
2019-03-28T05:19:15.479Z,14.70
2019-03-28T05:21:46.350Z,15.83
2019-03-28T05:24:17.115Z,18.10
2019-03-28T05:26:47.928Z,16.87
2019-03-28T05:29:18.762Z,16.30
2019-03-28T05:31:49.624Z,15.87
2019-03-28T05:34:20.500Z,15.07
2019-03-28T05:36:52.186Z,16.60
2019-03-28T05:39:24.182Z,17.15
2019-03-28T05:41:55.052Z,17.53
2019-03-28T05:44:25.742Z,19.47
2019-03-28T05:46:56.591Z,16.50
2019-03-28T05:49:27.378Z,16.60
2019-03-28T05:51:58.291Z,14.87
2019-03-28T05:54:29.061Z,14.97
2019-03-28T05:56:59.930Z,17.50
2019-03-28T05:59:30.801Z,17.43
2019-03-28T06:02:01.642Z,15.50
2019-03-28T06:04:32.341Z,15.00
2019-03-28T06:07:03.245Z,16.20
2019-03-28T06:09:34.201Z,17.23
2019-03-28T06:12:05.156Z,17.17
2019-03-28T06:14:35.981Z,14.97
2019-03-28T06:17:06.931Z,15.00
2019-03-28T06:19:38.359Z,17.70
2019-03-28T06:22:10.725Z,16.73
2019-03-28T06:24:41.492Z,15.33
2019-03-28T06:27:12.317Z,17.50
2019-03-28T06:29:43.167Z,15.33
2019-03-28T06:32:14.066Z,16.95
2019-03-28T06:34:44.937Z,15.43
2019-03-28T06:37:15.746Z,18.67
2019-03-28T06:39:48.252Z,16.70
2019-03-28T06:42:19.054Z,16.97
2019-03-28T06:44:49.989Z,17.47
2019-03-28T06:47:21.269Z,15.37
2019-03-28T06:49:52.536Z,17.23
2019-03-28T06:52:23.435Z,15.90
2019-03-28T06:54:54.290Z,17.53
2019-03-28T06:57:25.089Z,15.87
2019-03-28T06:59:55.867Z,16.10
2019-03-28T07:02:27.239Z,17.57
2019-03-28T07:04:59.308Z,16.50
2019-03-28T07:07:30.133Z,16.70
2019-03-28T07:10:02.456Z,17.33
2019-03-28T07:12:33.544Z,17.43
2019-03-28T07:15:04.792Z,18.37
2019-03-28T07:17:35.627Z,17.63
2019-03-28T07:20:08.959Z,15.97
2019-03-28T07:22:45.766Z,18.00
2019-03-28T07:25:15.466Z,17.37
2019-03-28T07:27:46.382Z,19.17
2019-03-28T07:30:19.484Z,17.33
2019-03-28T07:32:50.663Z,25.87
2019-03-28T07:35:21.631Z,17.80
2019-03-28T07:37:52.431Z,17.33
2019-03-28T07:40:23.305Z,17.47
2019-03-28T07:42:54.282Z,16.17
2019-03-28T07:45:25.186Z,16.97
2019-03-28T07:47:56.059Z,17.50
2019-03-28T07:50:27.022Z,17.50
2019-03-28T07:52:57.826Z,16.70
2019-03-28T07:55:31.661Z,16.03
2019-03-28T07:58:02.919Z,15.77
2019-03-28T08:00:33.803Z,15.30
2019-03-28T08:03:04.709Z,16.70
2019-03-28T08:05:35.649Z,16.77
2019-03-28T08:08:06.527Z,15.75
2019-03-28T08:10:37.376Z,13.43
2019-03-28T08:13:08.372Z,14.33
2019-03-28T08:15:39.141Z,16.93
2019-03-28T08:18:10.011Z,15.40
2019-03-28T08:20:42.548Z,16.05
2019-03-28T08:23:13.436Z,15.20
2019-03-28T08:25:44.418Z,13.73
2019-03-28T08:28:15.202Z,14.00
2019-03-28T08:30:46.018Z,13.83
2019-03-28T08:33:17.034Z,11.33
2019-03-28T08:35:48.378Z,13.50
2019-03-28T08:38:24.111Z,14.00
2019-03-28T08:40:55.058Z,13.70
2019-03-28T08:43:25.873Z,14.10
2019-03-28T08:45:56.916Z,12.53
2019-03-28T08:48:27.887Z,10.60
2019-03-28T08:50:58.753Z,10.70
2019-03-28T08:53:29.649Z,11.27
2019-03-28T08:56:00.527Z,10.20
2019-03-28T08:58:31.411Z,11.37
2019-03-28T09:01:02.388Z,10.60
2019-03-28T09:03:34.873Z,10.67
2019-03-28T09:06:06.006Z,11.33
2019-03-28T09:08:36.953Z,12.97
2019-03-28T09:11:07.849Z,11.10
2019-03-28T09:13:38.651Z,11.67
2019-03-28T09:16:09.645Z,11.40
2019-03-28T09:18:40.532Z,10.50
2019-03-28T09:21:13.432Z,10.18
2019-03-28T09:23:44.413Z,10.87
2019-03-28T09:26:15.195Z,10.50
2019-03-28T09:28:46.028Z,8.63
2019-03-28T09:31:20.113Z,8.40
2019-03-28T09:33:50.024Z,7.87
2019-03-28T09:36:20.738Z,8.90
2019-03-28T09:38:51.529Z,8.67
2019-03-28T09:41:22.241Z,7.37
2019-03-28T09:43:55.718Z,9.90
2019-03-28T09:46:26.821Z,8.53
2019-03-28T09:48:57.756Z,9.90
2019-03-28T09:51:28.558Z,9.17
2019-03-28T09:53:59.437Z,10.23
2019-03-28T09:56:30.323Z,10.70
2019-03-28T09:59:01.137Z,10.77
2019-03-28T10:01:32.014Z,8.93
2019-03-28T10:04:06.281Z,15.40
2019-03-28T10:06:36.296Z,11.10
2019-03-28T10:09:08.893Z,11.57
2019-03-28T10:11:39.869Z,9.73
2019-03-28T10:14:10.775Z,9.60
2019-03-28T10:16:41.673Z,10.77
2019-03-28T10:19:13.573Z,10.82
2019-03-28T10:21:45.528Z,10.48
2019-03-28T10:24:16.534Z,10.57
2019-03-28T10:26:47.433Z,11.73
2019-03-28T10:29:18.352Z,10.60
2019-03-28T10:31:49.260Z,10.97
2019-03-28T10:34:20.540Z,10.37
2019-03-28T10:36:51.334Z,9.20
2019-03-28T10:39:22.161Z,10.20
2019-03-28T10:41:52.982Z,10.20
2019-03-28T10:44:23.837Z,16.90
2019-03-28T10:46:54.761Z,10.53
2019-03-28T10:49:25.694Z,11.43
2019-03-28T10:51:56.531Z,11.63
2019-03-28T10:54:27.528Z,10.60
2019-03-28T10:57:07.977Z,9.50
2019-03-28T10:59:31.229Z,10.03
2019-03-28T11:02:02.171Z,9.30
2019-03-28T11:04:34.363Z,9.90
2019-03-28T11:07:05.258Z,10.27
2019-03-28T11:09:36.100Z,8.93
2019-03-28T11:12:07.068Z,9.97
2019-03-28T11:14:37.991Z,8.93
2019-03-28T11:17:08.950Z,11.10
2019-03-28T11:19:39.825Z,10.30
2019-03-28T11:22:10.620Z,11.30
2019-03-28T11:24:41.402Z,12.10
2019-03-28T11:27:12.236Z,12.20
2019-03-28T11:29:43.278Z,10.73
2019-03-28T11:32:14.786Z,11.50
2019-03-28T11:34:45.805Z,10.60
2019-03-28T11:37:25.978Z,9.97
2019-03-28T11:39:49.181Z,12.45
2019-03-28T11:42:20.023Z,10.60
2019-03-28T11:44:50.967Z,10.05
2019-03-28T11:47:23.889Z,9.10
2019-03-28T11:49:55.859Z,10.33
2019-03-28T11:52:26.846Z,10.90
2019-03-28T11:54:57.679Z,11.00
2019-03-28T11:57:28.518Z,10.53
2019-03-28T11:59:59.352Z,10.10
2019-03-28T12:02:30.177Z,10.27
2019-03-28T12:05:01.182Z,9.90
2019-03-28T12:07:32.150Z,11.17
2019-03-28T12:10:03.060Z,10.37
2019-03-28T12:12:33.817Z,11.37
2019-03-28T12:15:05.450Z,12.30
2019-03-28T12:17:36.535Z,9.40
2019-03-28T12:20:08.336Z,11.00
2019-03-28T12:22:39.255Z,11.23
2019-03-28T12:25:10.621Z,11.13
2019-03-28T12:27:41.581Z,10.63
2019-03-28T12:30:16.169Z,11.30
2019-03-28T12:32:47.501Z,12.53
2019-03-28T12:35:18.334Z,10.70
2019-03-28T12:37:49.360Z,9.67
2019-03-28T12:40:20.368Z,10.03
2019-03-28T12:42:51.390Z,11.20
2019-03-28T12:45:22.394Z,9.97
2019-03-28T12:47:53.336Z,11.40
2019-03-28T12:50:24.353Z,9.53
2019-03-28T12:52:58.164Z,9.90
2019-03-28T12:55:27.767Z,10.60
2019-03-28T12:57:58.633Z,10.27
2019-03-28T13:00:39.471Z,11.43
2019-03-28T13:03:10.482Z,11.15
2019-03-28T13:05:41.408Z,9.10
2019-03-28T13:08:12.356Z,11.30
2019-03-28T13:10:43.223Z,10.57
2019-03-28T13:13:15.017Z,10.10
2019-03-28T13:15:46.579Z,11.55
2019-03-28T13:18:17.397Z,9.80
2019-03-28T13:20:49.792Z,8.73
2019-03-28T13:23:20.625Z,10.23
2019-03-28T13:25:51.458Z,9.13
2019-03-28T13:28:22.460Z,9.40
2019-03-28T13:30:53.312Z,8.60
2019-03-28T13:33:24.131Z,16.55
2019-03-28T13:35:55.150Z,11.93
2019-03-28T13:38:27.087Z,9.83
2019-03-28T13:40:58.081Z,10.57
2019-03-28T13:43:28.961Z,10.40
2019-03-28T13:45:59.954Z,8.50
2019-03-28T13:48:30.883Z,9.78
2019-03-28T13:51:01.724Z,9.97
2019-03-28T13:53:39.553Z,8.07
2019-03-28T13:56:05.425Z,7.73
2019-03-28T13:58:36.370Z,8.50
2019-03-28T14:01:07.251Z,7.47
2019-03-28T14:03:40.967Z,8.17
2019-03-28T14:06:11.949Z,7.80
2019-03-28T14:08:42.804Z,9.00
2019-03-28T14:11:13.563Z,7.90
2019-03-28T14:13:44.475Z,8.07
2019-03-28T14:16:15.311Z,7.70
2019-03-28T14:18:47.175Z,7.97
2019-03-28T14:21:18.190Z,8.77
2019-03-28T14:23:49.054Z,8.63
2019-03-28T14:26:19.884Z,7.80
2019-03-28T14:28:51.879Z,6.93
2019-03-28T14:31:22.738Z,6.08
2019-03-28T14:33:53.585Z,24.13
2019-03-28T14:36:25.327Z,11.83
2019-03-28T14:38:56.446Z,7.73
2019-03-28T14:41:27.237Z,7.60
2019-03-28T14:43:58.076Z,6.40
2019-03-28T14:46:29.957Z,5.20
2019-03-28T14:49:00.910Z,5.00
2019-03-28T14:51:32.141Z,5.03
2019-03-28T14:54:03.105Z,4.63
2019-03-28T14:56:34.895Z,5.40
2019-03-28T14:59:06.505Z,4.37
2019-03-28T15:01:37.429Z,5.57
2019-03-28T15:04:09.340Z,4.50
2019-03-28T15:06:40.317Z,4.57
2019-03-28T15:09:11.312Z,4.30
2019-03-28T15:11:42.233Z,5.63
2019-03-28T15:14:13.070Z,5.13
2019-03-28T15:16:44.085Z,6.30
2019-03-28T15:19:15.060Z,6.47
2019-03-28T15:21:45.910Z,5.40
2019-03-28T15:24:17.963Z,13.38
2019-03-28T15:26:49.050Z,5.75
2019-03-28T15:29:20.040Z,5.93
2019-03-28T15:31:50.932Z,6.37
2019-03-28T15:34:21.722Z,5.07
2019-03-28T15:36:53.687Z,5.53
2019-03-28T15:39:24.872Z,5.07
2019-03-28T15:41:55.810Z,6.13
2019-03-28T15:44:26.747Z,5.27
2019-03-28T15:46:58.898Z,5.63
2019-03-28T15:49:29.715Z,6.17
2019-03-28T15:52:03.121Z,7.43
2019-03-28T15:54:33.150Z,5.90
2019-03-28T15:57:04.229Z,7.70
2019-03-28T15:59:35.203Z,7.40
2019-03-28T16:02:06.827Z,7.60
2019-03-28T16:04:37.666Z,6.40
2019-03-28T16:07:08.489Z,9.43
2019-03-28T16:09:39.345Z,7.58
2019-03-28T16:12:13.058Z,7.50
2019-03-28T16:14:43.900Z,8.50
2019-03-28T16:17:14.689Z,10.30
2019-03-28T16:19:46.548Z,8.07
2019-03-28T16:22:18.621Z,6.33
2019-03-28T16:24:49.457Z,6.95
2019-03-28T16:27:20.262Z,7.50
2019-03-28T16:29:54.192Z,7.10
2019-03-28T16:32:23.829Z,7.40
2019-03-28T16:34:54.783Z,6.90
2019-03-28T16:37:27.713Z,7.47
2019-03-28T16:39:58.864Z,7.30
2019-03-28T16:42:29.680Z,7.90
2019-03-28T16:45:00.534Z,7.40
2019-03-28T16:47:31.798Z,7.20
2019-03-28T16:50:03.670Z,8.93
2019-03-28T16:52:34.569Z,8.47
2019-03-28T16:55:06.711Z,7.57
2019-03-28T16:57:37.623Z,7.80
2019-03-28T17:00:14.279Z,10.47
2019-03-28T17:02:45.375Z,8.60
2019-03-28T17:05:16.384Z,8.80
2019-03-28T17:07:47.474Z,8.20
2019-03-28T17:10:43.431Z,8.35
2019-03-28T17:13:14.827Z,9.65
2019-03-28T17:15:46.037Z,9.77
2019-03-28T17:18:18.677Z,8.47
2019-03-28T17:20:49.885Z,9.55
2019-03-28T17:23:21.441Z,22.60
2019-03-28T17:25:52.537Z,11.70
2019-03-28T17:28:23.474Z,11.40
2019-03-28T17:30:54.500Z,13.75
2019-03-28T17:33:25.465Z,11.70
2019-03-28T17:35:56.496Z,9.27
2019-03-28T17:38:27.455Z,9.93
2019-03-28T17:40:58.363Z,10.17
2019-03-28T17:43:29.261Z,10.40
2019-03-28T17:46:00.131Z,9.13
2019-03-28T17:48:31.328Z,8.03
2019-03-28T17:51:02.188Z,9.23
2019-03-28T17:53:33.977Z,8.03
2019-03-28T17:56:05.148Z,7.10
2019-03-28T17:58:36.121Z,7.10
2019-03-28T18:01:07.758Z,7.50
2019-03-28T18:03:38.524Z,9.90
2019-03-28T18:06:09.375Z,9.30
2019-03-28T18:08:40.309Z,6.83
2019-03-28T18:11:11.338Z,5.77
2019-03-28T18:13:42.172Z,5.67
2019-03-28T18:16:13.166Z,5.47
2019-03-28T18:18:44.408Z,4.80
2019-03-28T18:21:15.248Z,7.08
2019-03-28T18:23:46.100Z,4.87
2019-03-28T18:26:17.196Z,5.17
2019-03-28T18:28:48.019Z,5.13
2019-03-28T18:31:19.050Z,4.93
2019-03-28T18:33:50.521Z,4.97
2019-03-28T18:36:21.491Z,3.80
2019-03-28T18:38:52.611Z,4.90
2019-03-28T18:41:23.624Z,5.30
2019-03-28T18:43:54.433Z,5.10
2019-03-28T18:46:26.169Z,5.08
2019-03-28T18:48:57.307Z,4.80
2019-03-28T18:51:28.678Z,5.23
2019-03-28T18:53:59.650Z,4.40
2019-03-28T18:56:30.558Z,4.80
2019-03-28T18:59:01.476Z,5.00
2019-03-28T19:01:32.548Z,5.30
2019-03-28T19:04:03.413Z,4.97
2019-03-28T19:06:34.454Z,4.63
2019-03-28T19:09:07.320Z,4.50
2019-03-28T19:11:40.798Z,13.57
2019-03-28T19:14:10.920Z,4.50
2019-03-28T19:16:42.279Z,4.93
2019-03-28T19:19:13.351Z,4.90
2019-03-28T19:21:44.132Z,4.50
2019-03-28T19:24:15.243Z,5.30
2019-03-28T19:26:48.130Z,4.87
2019-03-28T19:29:20.738Z,5.33
2019-03-28T19:31:51.702Z,5.30
2019-03-28T19:34:22.581Z,4.67
2019-03-28T19:36:56.361Z,4.20
2019-03-28T19:39:32.868Z,5.63
2019-03-28T19:42:04.596Z,5.47
2019-03-28T19:44:36.108Z,5.33
2019-03-28T19:47:07.402Z,5.73
2019-03-28T19:49:38.659Z,5.40
2019-03-28T19:52:13.019Z,5.83
2019-03-28T19:54:42.411Z,5.83
2019-03-28T19:57:15.850Z,5.57
2019-03-28T19:59:47.550Z,5.50
2019-03-28T20:02:18.468Z,6.47
2019-03-28T20:04:49.259Z,5.70
2019-03-28T20:07:21.783Z,6.67
2019-03-28T20:09:52.607Z,7.17
2019-03-28T20:12:23.427Z,6.80
2019-03-28T20:14:55.419Z,6.77
2019-03-28T20:17:26.372Z,6.57
2019-03-28T20:19:57.239Z,6.53
2019-03-28T20:22:29.197Z,6.93
2019-03-28T20:25:00.247Z,7.20
2019-03-28T20:27:31.190Z,7.80
2019-03-28T20:30:02.164Z,7.83
2019-03-28T20:32:33.154Z,6.60
2019-03-28T20:35:04.247Z,7.37
2019-03-28T20:37:35.112Z,7.73
2019-03-28T20:40:07.391Z,7.40
2019-03-28T20:42:38.129Z,7.20
2019-03-28T20:45:11.661Z,7.83
2019-03-28T20:47:42.586Z,8.30
2019-03-28T20:50:15.840Z,8.30
2019-03-28T20:52:46.766Z,7.80
2019-03-28T20:55:17.666Z,9.40
2019-03-28T20:57:48.675Z,8.97
2019-03-28T21:00:36.864Z,8.53
2019-03-28T21:03:08.166Z,8.63
2019-03-28T21:05:39.441Z,9.07
2019-03-28T21:08:10.604Z,9.63
2019-03-28T21:10:41.595Z,8.60
2019-03-28T21:13:13.888Z,8.60
2019-03-28T21:15:45.766Z,9.30
2019-03-28T21:18:16.585Z,8.20
2019-03-28T21:20:47.382Z,8.77
2019-03-28T21:23:18.233Z,9.03
2019-03-28T21:25:49.307Z,8.40
2019-03-28T21:28:20.138Z,9.33
2019-03-28T21:30:50.985Z,8.43
2019-03-28T21:33:23.008Z,9.10
2019-03-28T21:35:53.990Z,8.47
2019-03-28T21:38:24.903Z,20.60
2019-03-28T21:40:59.420Z,14.00
2019-03-28T21:43:29.329Z,9.03
2019-03-28T21:46:00.084Z,9.53
2019-03-28T21:48:30.877Z,8.30
2019-03-28T21:51:01.666Z,8.68
2019-03-28T21:53:33.177Z,8.77
2019-03-28T21:56:04.468Z,8.13
2019-03-28T21:58:35.243Z,9.03
2019-03-28T22:01:06.939Z,9.30
2019-03-28T22:03:39.867Z,8.87
2019-03-28T22:06:10.329Z,9.05
2019-03-28T22:08:42.372Z,7.55
2019-03-28T22:11:13.195Z,8.93
2019-03-28T22:13:44.071Z,8.90
2019-03-28T22:16:15.012Z,8.20
2019-03-28T22:18:45.806Z,8.10
2019-03-28T22:21:16.570Z,8.43
2019-03-28T22:23:47.260Z,7.80
2019-03-28T22:26:18.809Z,8.70
2019-03-28T22:28:49.650Z,8.70
2019-03-28T22:31:20.561Z,8.10
2019-03-28T22:33:51.250Z,8.57
2019-03-28T22:36:22.165Z,9.68
2019-03-28T22:38:54.003Z,7.87
2019-03-28T22:41:24.720Z,8.10
2019-03-28T22:43:55.573Z,8.87
2019-03-28T22:46:26.326Z,7.50
2019-03-28T22:48:57.112Z,8.23
2019-03-28T22:51:28.071Z,9.10
2019-03-28T22:53:58.892Z,8.23
2019-03-28T22:56:29.766Z,7.70
2019-03-28T22:59:00.978Z,9.10
2019-03-28T23:01:31.860Z,9.20
2019-03-28T23:04:02.677Z,8.90
2019-03-28T23:06:33.574Z,8.88
2019-03-28T23:09:06.335Z,8.10
2019-03-28T23:11:40.317Z,9.47
2019-03-28T23:14:10.291Z,9.23
2019-03-28T23:16:41.069Z,9.87
2019-03-28T23:19:12.237Z,9.30
2019-03-28T23:21:42.982Z,9.57
2019-03-28T23:24:13.799Z,9.67
2019-03-28T23:26:44.552Z,10.90
2019-03-28T23:29:15.428Z,10.40
2019-03-28T23:31:46.777Z,9.20
2019-03-28T23:34:18.003Z,10.50
2019-03-28T23:36:48.762Z,10.07
2019-03-28T23:39:19.616Z,10.80
2019-03-28T23:41:50.415Z,10.47
2019-03-28T23:44:21.191Z,9.25
2019-03-28T23:46:51.902Z,12.97
2019-03-28T23:49:22.702Z,10.40
2019-03-28T23:51:54.826Z,10.63
2019-03-28T23:54:26.901Z,11.20
2019-03-28T23:56:57.638Z,11.23
2019-03-28T23:59:28.432Z,10.30
